Colgan, North Dakota
Current Conditions -  °F | °C
As of 1:15 AM on Friday 28 Nov 2014 (Local Time) from KD50 Reporting Station
Light Snow Light Snow  
Wind Chill: -7°   Ceiling: 900
Heat Index: 10°   Visibility: 3mi
Dew Point:   Wind: 16mph
Humidity: 92%   Direction: 90°E
Pressure: 29.81"   Gusts: NA
Location:  48.9471°N, 103.888°W
Report Text: KD50 280715Z AUTO 09014KT 3SM -SN SCT002 BKN009 OVC018 M12/M13 A2981 RMK AO2
Loading
Personal Weather Stations






























Interactive Weather Map New forecast layout! Learn more

10-Day Weather Forecast

Advertisements
Track Severe Weather on mobile